Flight Track Log - Related Links

Times and Time Zones

All times are in EDT time to prevent confusion due to time zone crossing. See the DAL3720 flight status page for this flight to view local times or setup timezone preferences in your user account.

Time Position Orientation Groundspeed Altitude Reporting Facility
EDT Latitude Longitude Course Direction KTS MPH feet Rate Location/Type
Mon 07:26:20 AM 35.2289 -80.9572 13° North 149 171 1,700  Level Atlanta Center
Mon 07:27:15 AM 35.2692 -80.9836 332° Northwest 202 232 3,200 2,057 Climbing Atlanta Center
Mon 07:28:40 AM 35.3572 -80.9981 352° North 265 305 6,500 2,331 Climbing Atlanta Center
Mon 07:29:00 AM 35.2697 -81.2077 68° East  Level FlightAware
Mon 07:29:16 AM 35.4028 -80.9839 14° North 268 308 7,900  Level Atlanta Center
Mon 07:30:00 AM 35.3385 -81.0801 52° Northeast  Level FlightAware
Mon 07:30:17 AM 35.4794 -80.9631 12° North 288 331 10,400  Level Atlanta Center
Mon 07:31:00 AM 35.4207 -80.9655 13° North  Level FlightAware
Mon 07:31:28 AM 35.5828 -80.9286 15° North 332 382 12,300  Level Atlanta Center
Mon 07:32:29 AM 35.6781 -80.8994 14° North 343 395 13,700 1,686 Climbing Atlanta Center
Mon 07:33:29 AM 35.7797 -80.8800 North 358 412 15,700 1,750 Climbing Atlanta Center
Mon 07:34:29 AM 35.8725 -80.9200 341° North 352 405 17,200 1,350 Climbing Atlanta Center
Mon 07:35:29 AM 35.9639 -80.9833 331° Northwest 352 405 18,400 1,250 Climbing Atlanta Center
Mon 07:36:29 AM 36.0489 -81.0469 329° Northwest 362 417 19,700 1,250 Climbing Atlanta Center
Mon 07:37:29 AM 36.1461 -81.1022 335° Northwest 373 429 20,900 1,160 Climbing Atlanta Center
Mon 07:38:28 AM 36.2550 -81.1139 355° North 378 435 22,000 900 Climbing Atlanta Center
Mon 07:39:29 AM 36.3481 -81.1697 334° Northwest 385 443 22,700 793 Climbing Atlanta Center
Mon 07:40:29 AM 36.3797 -81.2744 291° West 348 400 23,600 850 Climbing Atlanta Center
Mon 07:41:29 AM 36.4156 -81.3969 290° West 361 415 24,400 800 Climbing Atlanta Center
Mon 07:42:29 AM 36.4517 -81.5247 289° West 382 440 25,200 750 Climbing Atlanta Center
Mon 07:43:29 AM 36.4897 -81.6475 291° West 382 440 25,900 400 Climbing Atlanta Center
Mon 07:44:29 AM 36.5278 -81.7886 289° West 382 440 26,000 50 Climbing Atlanta Center
Mon 07:45:29 AM 36.5633 -81.9194 289° West 392 451 26,000  Level Atlanta Center
Mon 07:47:22 AM 36.6331 -82.1622 290° West 416 479 26,000  Level Indianapolis Center
Mon 07:48:23 AM 36.6717 -82.2997 289° West 418 481 26,000  Level Indianapolis Center
Mon 07:49:25 AM 36.7103 -82.4381 289° West 422 486 26,000  Level Indianapolis Center
Mon 07:50:26 AM 36.7544 -82.5997 289° West 422 486 26,000  Level Indianapolis Center
Mon 07:51:27 AM 36.8000 -82.7350 293° West 423 487 26,000  Level Indianapolis Center
Mon 07:52:29 AM 36.8714 -82.8578 306° West 429 494 26,000  Level Indianapolis Center
Mon 07:53:31 AM 36.9431 -82.9778 307° West 434 499 26,000  Level Indianapolis Center
Mon 07:54:32 AM 37.0200 -83.1094 306° West 433 498 26,000  Level Indianapolis Center
Mon 07:55:34 AM 37.0906 -83.2300 306° West 429 494 26,000  Level Indianapolis Center
Mon 07:56:35 AM 37.1617 -83.3517 306° West 431 496 26,000  Level Indianapolis Center
Mon 07:57:37 AM 37.2328 -83.4739 306° West 433 498 26,000  Level Indianapolis Center
Mon 07:58:38 AM 37.3036 -83.5961 306° West 432 497 26,000 -98 Level Indianapolis Center
Mon 07:59:40 AM 37.4231 -83.6272 348° North 450 518 25,800 -774 Descending Indianapolis Center
Mon 08:00:42 AM 37.5497 -83.6044 North 456 525 24,400 -878 Descending Indianapolis Center
Mon 08:01:43 AM 37.6683 -83.6103 358° North 437 503 24,000 -488 Descending Indianapolis Center
Mon 08:02:45 AM 37.7867 -83.6922 331° Northwest 417 480 23,400 -1,366 Descending Indianapolis Center
Mon 08:03:46 AM 37.8906 -83.7656 331° Northwest 425 489 21,200 -2,146 Descending Indianapolis Center
Mon 08:04:48 AM 37.9872 -83.8333 331° Northwest 399 459 19,000 -2,000 Descending Indianapolis Center
Mon 08:05:49 AM 38.0797 -83.8989 331° Northwest 384 442 17,100 -2,000 Descending Indianapolis Center
Mon 08:06:51 AM 38.1711 -83.9633 331° Northwest 376 433 14,900 -2,146 Descending Indianapolis Center
Mon 08:07:52 AM 38.2619 -84.0300 330° Northwest 376 433 12,700 -1,854 Descending Indianapolis Center
Mon 08:08:54 AM 38.3514 -84.0931 331° Northwest 367 422 11,100 -823 Descending Indianapolis Center
Mon 08:09:56 AM 38.4511 -84.1667 330° Northwest 357 411 11,000 -49 Descending Indianapolis Center
Mon 08:10:57 AM 38.5372 -84.2286 331° Northwest 354 407 11,000  Level Indianapolis Center
Mon 08:11:59 AM 38.6247 -84.2922 330° Northwest 358 412 11,000  Level Indianapolis Center
Mon 08:13:00 AM 38.7156 -84.3572 331° Northwest 365 420 11,000 -293 Level Indianapolis Center
Mon 08:14:02 AM 38.7972 -84.4158 331° Northwest 335 386 10,400 -919 Descending Indianapolis Center
Mon 08:15:04 AM 38.8653 -84.4631 332° Northwest 282 325 9,100 -706 Descending Indianapolis Center
Mon 08:16:01 AM 38.9333 -84.5167 329° Northwest 268 308 9,000 -256 Descending Cincinnati TRACON
Mon 08:17:01 AM 39.0000 -84.5333 349° North 271 312 8,600 -1,050 Descending Cincinnati TRACON
Mon 08:18:01 AM 39.0833 -84.5333 360° North 271 312 6,900 -1,842 Descending Cincinnati TRACON
Mon 08:18:55 AM 39.1500 -84.5333 360° North 265 305 5,100 -1,913 Descending Cincinnati TRACON
Mon 08:19:10 AM 39.1567 -84.5419 315° West 273 314 4,700 -1,403 Descending Indianapolis Center
Mon 08:20:12 AM 39.1750 -84.6117 289° West 241 277 3,300 -1,355 Descending Indianapolis Center

Login

Don't have an account? Register now (free) for customized features, flight alerts, and more!